createdAt,value
2022-12-28T00:01:46.918Z,6.37
2022-12-28T00:04:17.841Z,6.60
2022-12-28T00:06:45.578Z,6.07
2022-12-28T00:09:13.217Z,6.80
2022-12-28T00:11:40.342Z,6.73
2022-12-28T00:14:07.505Z,7.10
2022-12-28T00:16:36.923Z,6.77
2022-12-28T00:19:07.175Z,6.23
2022-12-28T00:21:34.687Z,6.63
2022-12-28T00:24:02.994Z,6.40
2022-12-28T00:26:32.049Z,6.33
2022-12-28T00:29:04.636Z,6.47
2022-12-28T00:31:34.173Z,6.53
2022-12-28T00:34:02.589Z,6.97
2022-12-28T00:37:10.367Z,6.67
2022-12-28T00:39:19.225Z,7.73
2022-12-28T00:41:46.818Z,7.30
2022-12-28T00:44:13.910Z,7.63
2022-12-28T00:46:41.413Z,7.23
2022-12-28T00:49:08.683Z,7.63
2022-12-28T00:51:35.969Z,8.20
2022-12-28T00:54:03.055Z,7.50
2022-12-28T00:56:30.116Z,7.70
2022-12-28T00:58:59.218Z,7.53
2022-12-28T01:01:28.252Z,7.30
2022-12-28T01:03:59.198Z,7.93
2022-12-28T01:06:28.132Z,7.17
2022-12-28T01:08:58.792Z,7.97
2022-12-28T01:11:30.099Z,7.50
2022-12-28T01:14:00.032Z,7.10
2022-12-28T01:16:40.533Z,7.27
2022-12-28T01:19:21.874Z,7.00
2022-12-28T01:22:00.579Z,6.93
2022-12-28T01:24:29.132Z,7.50
2022-12-28T01:27:04.938Z,7.73
2022-12-28T01:29:33.008Z,7.50
2022-12-28T01:32:00.277Z,7.20
2022-12-28T01:34:29.602Z,7.00
2022-12-28T01:36:56.832Z,7.00
2022-12-28T01:39:23.844Z,7.50
2022-12-28T01:41:51.096Z,7.23
2022-12-28T01:44:24.281Z,7.63
2022-12-28T01:46:55.478Z,7.53
2022-12-28T01:49:31.659Z,7.53
2022-12-28T01:52:20.551Z,8.27
2022-12-28T01:55:17.151Z,7.73
2022-12-28T01:57:52.382Z,7.97
2022-12-28T02:00:20.179Z,9.13
2022-12-28T02:02:52.818Z,9.07
2022-12-28T02:05:22.459Z,9.47
2022-12-28T02:08:09.784Z,9.37
2022-12-28T02:10:42.328Z,9.10
2022-12-28T02:13:14.939Z,8.87
2022-12-28T02:15:42.522Z,8.50
2022-12-28T02:18:11.116Z,8.40
2022-12-28T02:20:58.633Z,7.80
2022-12-28T02:23:51.864Z,7.73
2022-12-28T02:26:49.528Z,8.07
2022-12-28T02:29:37.364Z,7.50
2022-12-28T02:32:24.005Z,8.10
2022-12-28T02:35:18.805Z,7.60
2022-12-28T02:37:49.315Z,8.30
2022-12-28T02:40:35.192Z,7.53
2022-12-28T02:43:03.549Z,6.87
2022-12-28T02:46:04.234Z,6.77
2022-12-28T02:49:05.100Z,6.83
2022-12-28T02:52:17.111Z,6.00
2022-12-28T02:55:15.925Z,6.80
2022-12-28T02:57:58.577Z,6.27
2022-12-28T03:00:34.043Z,6.60
2022-12-28T03:03:34.063Z,5.83
2022-12-28T03:06:46.014Z,6.17
2022-12-28T03:09:32.101Z,6.50
2022-12-28T03:12:09.038Z,6.10
2022-12-28T03:14:57.228Z,5.90
2022-12-28T03:17:48.404Z,5.80
2022-12-28T03:20:44.129Z,5.97
2022-12-28T03:23:34.585Z,6.00
2022-12-28T03:26:25.814Z,5.80
2022-12-28T03:29:13.582Z,5.67
2022-12-28T03:31:43.859Z,5.27
2022-12-28T03:34:14.661Z,5.70
2022-12-28T03:37:01.888Z,5.90
2022-12-28T03:39:31.804Z,6.00
2022-12-28T03:42:22.967Z,5.40
2022-12-28T03:45:01.727Z,5.57
2022-12-28T03:47:31.924Z,6.07
2022-12-28T03:49:59.835Z,5.80
2022-12-28T03:52:27.765Z,5.90
2022-12-28T03:54:54.882Z,5.77
2022-12-28T03:57:23.674Z,6.00
2022-12-28T03:59:51.344Z,5.77
2022-12-28T04:02:18.928Z,5.73
2022-12-28T04:04:47.370Z,5.63
2022-12-28T04:07:15.282Z,5.97
2022-12-28T04:09:42.238Z,5.80
2022-12-28T04:12:12.425Z,5.20
2022-12-28T04:14:58.040Z,5.07
2022-12-28T04:17:25.347Z,5.20
2022-12-28T04:19:52.381Z,5.10
2022-12-28T04:22:19.423Z,4.97
2022-12-28T04:24:46.640Z,4.60
2022-12-28T04:27:13.734Z,4.87
2022-12-28T04:29:40.871Z,4.53
2022-12-28T04:32:19.196Z,4.60
2022-12-28T04:34:48.838Z,4.20
2022-12-28T04:37:18.629Z,4.77
2022-12-28T04:39:56.359Z,4.40
2022-12-28T04:42:26.320Z,4.70
2022-12-28T04:44:53.340Z,4.80
2022-12-28T04:47:20.535Z,4.43
2022-12-28T04:49:47.655Z,3.97
2022-12-28T04:52:14.838Z,4.63
2022-12-28T04:54:41.844Z,4.50
2022-12-28T04:57:08.779Z,3.90
2022-12-28T04:59:35.763Z,4.00
2022-12-28T05:02:02.997Z,4.23
2022-12-28T05:04:30.202Z,3.60
2022-12-28T05:06:57.261Z,3.93
2022-12-28T05:09:24.384Z,4.07
2022-12-28T05:11:51.425Z,3.80
2022-12-28T05:14:18.544Z,4.10
2022-12-28T05:16:45.598Z,4.40
2022-12-28T05:19:12.765Z,4.70
2022-12-28T05:21:40.360Z,4.17
2022-12-28T05:24:07.752Z,4.23
2022-12-28T05:26:35.899Z,4.43
2022-12-28T05:29:03.334Z,4.10
2022-12-28T05:31:30.518Z,4.07
2022-12-28T05:33:57.770Z,4.10
2022-12-28T05:36:27.548Z,4.50
2022-12-28T05:38:55.712Z,4.80
2022-12-28T05:41:26.314Z,5.60
2022-12-28T05:43:54.108Z,4.37
2022-12-28T05:46:24.974Z,4.67
2022-12-28T05:48:52.618Z,5.00
2022-12-28T05:51:22.136Z,5.10
2022-12-28T05:53:49.802Z,4.10
2022-12-28T05:56:19.538Z,4.43
2022-12-28T05:58:52.076Z,3.50
2022-12-28T06:01:21.801Z,3.43
2022-12-28T06:03:53.558Z,3.30
2022-12-28T06:06:21.332Z,3.87
2022-12-28T06:08:49.492Z,3.27
2022-12-28T06:11:19.095Z,3.37
2022-12-28T06:13:46.772Z,2.60
2022-12-28T06:16:22.698Z,3.30
2022-12-28T06:18:49.979Z,2.90
2022-12-28T06:21:22.736Z,2.60
2022-12-28T06:23:50.644Z,2.50
2022-12-28T06:26:20.727Z,2.43
2022-12-28T06:28:48.697Z,2.87
2022-12-28T06:31:21.591Z,3.47
2022-12-28T06:33:49.941Z,3.17
2022-12-28T06:36:20.468Z,3.40
2022-12-28T06:38:49.327Z,3.60
2022-12-28T06:41:17.517Z,3.83
2022-12-28T06:43:45.442Z,3.70
2022-12-28T06:46:13.780Z,4.07
2022-12-28T06:48:41.241Z,3.67
2022-12-28T06:51:12.685Z,3.93
2022-12-28T06:53:39.900Z,3.53
2022-12-28T06:56:28.738Z,3.70
2022-12-28T06:59:02.394Z,3.73
2022-12-28T07:01:39.251Z,4.00
2022-12-28T07:04:08.051Z,3.90
2022-12-28T07:06:38.308Z,4.47
2022-12-28T07:09:08.839Z,3.57
2022-12-28T07:11:36.259Z,3.93
2022-12-28T07:14:03.463Z,3.57
2022-12-28T07:18:59.353Z,4.30
2022-12-28T07:21:32.912Z,4.70
2022-12-28T07:24:00.367Z,3.60
2022-12-28T07:26:30.435Z,4.00
2022-12-28T07:28:58.940Z,4.00
2022-12-28T07:31:31.308Z,4.00
2022-12-28T07:34:00.169Z,4.40
2022-12-28T07:36:30.671Z,4.03
2022-12-28T07:38:58.399Z,4.43
2022-12-28T07:41:30.295Z,3.73
2022-12-28T07:43:59.301Z,4.63
2022-12-28T07:46:28.884Z,3.70
2022-12-28T07:49:01.036Z,4.00
2022-12-28T07:51:30.945Z,4.20
2022-12-28T07:53:59.561Z,3.53
2022-12-28T07:56:28.384Z,3.73
2022-12-28T07:58:57.700Z,3.20
2022-12-28T08:01:27.506Z,3.30
2022-12-28T08:03:56.392Z,3.30
2022-12-28T08:06:24.621Z,3.13
2022-12-28T08:08:54.067Z,3.30
2022-12-28T08:11:23.694Z,3.17
2022-12-28T08:13:52.357Z,3.33
2022-12-28T08:16:21.146Z,3.10
2022-12-28T08:18:49.234Z,3.25
2022-12-28T08:21:22.315Z,3.72
2022-12-28T08:23:50.469Z,3.85
2022-12-28T08:26:23.118Z,3.50
2022-12-28T08:28:52.721Z,3.70
2022-12-28T08:31:26.374Z,3.73
2022-12-28T08:33:55.222Z,3.47
2022-12-28T08:36:22.649Z,3.07
2022-12-28T08:38:49.860Z,3.53
2022-12-28T08:41:19.979Z,3.40
2022-12-28T08:43:48.365Z,4.00
2022-12-28T08:46:18.213Z,3.50
2022-12-28T08:48:46.728Z,3.70
2022-12-28T08:51:22.836Z,3.53
2022-12-28T08:53:50.579Z,3.53
2022-12-28T08:56:29.516Z,3.72
2022-12-28T08:58:58.228Z,3.65
2022-12-28T09:01:37.271Z,3.63
2022-12-28T09:04:11.868Z,3.85
2022-12-28T09:06:39.662Z,3.78
2022-12-28T09:09:08.710Z,3.90
2022-12-28T09:11:36.703Z,3.75
2022-12-28T09:14:05.768Z,3.70
2022-12-28T09:16:33.330Z,3.55
2022-12-28T09:19:02.279Z,3.70
2022-12-28T09:21:32.282Z,3.33
2022-12-28T09:23:59.437Z,3.70
2022-12-28T09:26:28.754Z,3.70
2022-12-28T09:28:58.193Z,3.50
2022-12-28T09:31:28.282Z,4.00
2022-12-28T09:36:48.984Z,3.20
2022-12-28T09:39:20.967Z,4.10
2022-12-28T09:42:05.973Z,3.33
2022-12-28T09:44:56.093Z,3.83
2022-12-28T09:47:33.031Z,4.75
2022-12-28T09:50:16.675Z,3.70
2022-12-28T09:53:05.843Z,3.60
2022-12-28T09:55:39.814Z,3.33
2022-12-28T09:58:14.978Z,3.50
2022-12-28T10:00:47.163Z,3.50
2022-12-28T10:03:19.508Z,3.60
2022-12-28T10:05:47.693Z,3.75
2022-12-28T10:08:19.055Z,3.70
2022-12-28T10:10:49.153Z,4.05
2022-12-28T10:13:53.536Z,3.85
2022-12-28T10:16:19.069Z,4.20
2022-12-28T10:18:47.296Z,3.75
2022-12-28T10:21:16.913Z,4.35
2022-12-28T10:24:12.492Z,4.55
2022-12-28T10:26:33.751Z,4.47
2022-12-28T10:29:01.080Z,4.65
2022-12-28T10:31:36.565Z,5.32
2022-12-28T10:34:15.451Z,5.07
2022-12-28T10:36:45.460Z,5.20
2022-12-28T10:39:23.347Z,4.95
2022-12-28T10:41:51.608Z,5.35
2022-12-28T10:44:39.249Z,5.63
2022-12-28T10:47:18.397Z,5.03
2022-12-28T10:50:10.448Z,6.13
2022-12-28T10:52:39.386Z,5.45
2022-12-28T10:55:27.984Z,4.97
2022-12-28T10:58:28.033Z,5.13
2022-12-28T11:00:45.664Z,5.07
2022-12-28T11:03:19.056Z,3.90
2022-12-28T11:05:47.949Z,4.40
2022-12-28T11:08:23.878Z,4.43
2022-12-28T11:10:57.985Z,4.45
2022-12-28T11:13:27.382Z,4.68
2022-12-28T11:15:54.729Z,5.20
2022-12-28T11:18:22.436Z,4.28
2022-12-28T11:20:54.260Z,4.60
2022-12-28T11:23:26.498Z,4.93
2022-12-28T11:25:53.588Z,4.93
2022-12-28T11:28:22.495Z,4.90
2022-12-28T11:30:51.373Z,5.00
2022-12-28T11:33:48.120Z,5.20
2022-12-28T11:36:17.846Z,4.70
2022-12-28T11:38:47.570Z,4.50
2022-12-28T11:41:33.594Z,4.10
2022-12-28T11:44:04.771Z,4.57
2022-12-28T11:46:31.864Z,4.13
2022-12-28T11:49:04.809Z,4.00
2022-12-28T11:51:36.817Z,4.03
2022-12-28T11:54:25.474Z,4.32
2022-12-28T11:56:52.479Z,4.10
2022-12-28T11:59:25.955Z,3.67
2022-12-28T12:01:55.332Z,4.07
2022-12-28T12:04:31.472Z,4.07
2022-12-28T12:07:01.579Z,4.35
2022-12-28T12:09:32.933Z,4.47
2022-12-28T12:12:22.996Z,4.32
2022-12-28T12:15:10.034Z,3.95
2022-12-28T12:17:47.398Z,4.95
2022-12-28T12:20:23.245Z,4.22
2022-12-28T12:22:57.384Z,4.18
2022-12-28T12:25:40.932Z,4.20
2022-12-28T12:28:28.146Z,4.35
2022-12-28T12:30:56.284Z,4.20
2022-12-28T12:33:27.520Z,4.50
2022-12-28T12:36:10.032Z,5.07
2022-12-28T12:39:38.364Z,4.60
2022-12-28T12:42:16.724Z,5.20
2022-12-28T12:44:53.295Z,4.70
2022-12-28T12:47:35.912Z,4.20
2022-12-28T12:50:11.671Z,4.10
2022-12-28T12:53:04.450Z,4.13
2022-12-28T12:55:49.526Z,3.85
2022-12-28T12:58:25.443Z,4.38
2022-12-28T13:01:27.713Z,4.18
2022-12-28T13:03:56.951Z,4.30
2022-12-28T13:06:28.045Z,3.70
2022-12-28T13:09:05.281Z,4.20
2022-12-28T13:11:37.674Z,3.88
2022-12-28T13:14:05.821Z,3.05
2022-12-28T13:16:33.674Z,2.80
2022-12-28T13:19:06.721Z,3.22
2022-12-28T13:21:45.587Z,2.60
2022-12-28T13:24:45.956Z,2.22
2022-12-28T13:27:20.669Z,2.40
2022-12-28T13:29:53.127Z,2.60
2022-12-28T13:32:37.536Z,2.65
2022-12-28T13:35:18.497Z,2.63
2022-12-28T13:38:12.334Z,2.38
2022-12-28T13:40:41.588Z,2.70
2022-12-28T13:43:45.431Z,2.67
2022-12-28T13:46:17.509Z,2.50
2022-12-28T13:48:48.533Z,2.65
2022-12-28T13:51:19.057Z,3.17
2022-12-28T13:53:51.531Z,2.80
2022-12-28T13:56:21.449Z,2.78
2022-12-28T13:58:56.578Z,2.58
2022-12-28T14:01:29.830Z,2.47
2022-12-28T14:04:33.709Z,2.80
2022-12-28T14:06:51.545Z,3.30
2022-12-28T14:09:20.536Z,2.92
2022-12-28T14:11:48.699Z,3.00
2022-12-28T14:14:17.276Z,2.90
2022-12-28T14:16:44.798Z,2.80
2022-12-28T14:19:12.496Z,2.90
2022-12-28T14:21:42.467Z,2.70
2022-12-28T14:24:16.833Z,3.13
2022-12-28T14:26:53.828Z,2.72
2022-12-28T14:29:28.936Z,2.70
2022-12-28T14:32:04.709Z,3.00
2022-12-28T14:34:35.219Z,3.28
2022-12-28T14:37:02.638Z,3.00
2022-12-28T14:39:34.692Z,3.20
2022-12-28T14:42:04.511Z,2.75
2022-12-28T14:44:38.986Z,3.20
2022-12-28T14:47:44.433Z,3.60
2022-12-28T14:50:18.909Z,3.63
2022-12-28T14:52:48.278Z,3.37
2022-12-28T14:55:27.187Z,3.60
2022-12-28T14:58:00.664Z,3.10
2022-12-28T15:00:34.118Z,3.60
2022-12-28T15:03:17.775Z,3.80
2022-12-28T15:05:52.738Z,3.47
2022-12-28T15:08:20.303Z,3.78
2022-12-28T15:10:55.822Z,3.90
2022-12-28T15:13:25.092Z,3.97
2022-12-28T15:15:57.854Z,4.05
2022-12-28T15:18:27.240Z,3.60
2022-12-28T15:20:54.584Z,3.75
2022-12-28T15:23:22.028Z,4.07
2022-12-28T15:25:49.385Z,4.50
2022-12-28T15:28:19.109Z,4.00
2022-12-28T15:30:46.429Z,4.43
2022-12-28T15:33:13.420Z,4.73
2022-12-28T15:35:40.491Z,4.77
2022-12-28T15:38:07.710Z,4.35
2022-12-28T15:40:34.861Z,5.00
2022-12-28T15:43:01.971Z,4.78
2022-12-28T15:45:29.124Z,5.00
2022-12-28T15:47:56.218Z,5.07
2022-12-28T15:50:24.453Z,5.20
2022-12-28T15:52:51.447Z,5.17
2022-12-28T15:55:18.521Z,5.60
2022-12-28T15:57:45.505Z,4.73
2022-12-28T16:00:18.873Z,5.13
2022-12-28T16:02:46.769Z,4.97
2022-12-28T16:05:14.630Z,4.77
2022-12-28T16:07:41.683Z,4.60
2022-12-28T16:10:09.272Z,4.83
2022-12-28T16:12:36.585Z,4.90
2022-12-28T16:15:03.901Z,5.17
2022-12-28T16:17:30.976Z,4.93
2022-12-28T16:19:58.004Z,5.80
2022-12-28T16:22:25.614Z,5.80
2022-12-28T16:24:52.625Z,6.10
2022-12-28T16:27:19.693Z,5.63
2022-12-28T16:29:52.714Z,5.40
2022-12-28T16:32:22.518Z,5.00
2022-12-28T16:34:49.607Z,5.43
2022-12-28T16:37:16.932Z,5.47
2022-12-28T16:39:44.327Z,5.90
2022-12-28T16:42:11.579Z,5.23
2022-12-28T16:44:40.367Z,5.30
2022-12-28T16:47:07.662Z,5.53
2022-12-28T16:49:39.604Z,6.07
2022-12-28T16:52:06.835Z,5.67
2022-12-28T16:54:34.088Z,6.37
2022-12-28T16:57:01.075Z,6.40
2022-12-28T16:59:28.766Z,6.40
2022-12-28T17:01:56.970Z,6.20
2022-12-28T17:04:24.541Z,6.23
2022-12-28T17:06:51.996Z,6.60
2022-12-28T17:09:19.934Z,6.77
2022-12-28T17:11:48.708Z,6.93
2022-12-28T17:14:29.286Z,6.00
2022-12-28T17:17:03.428Z,6.47
2022-12-28T17:19:30.582Z,6.90
2022-12-28T17:21:57.839Z,7.03
2022-12-28T17:24:24.971Z,7.07
2022-12-28T17:26:52.172Z,6.77
2022-12-28T17:29:19.464Z,7.53
2022-12-28T17:31:46.703Z,7.27
2022-12-28T17:34:14.181Z,7.37
2022-12-28T17:36:41.231Z,7.37
2022-12-28T17:39:08.474Z,7.80
2022-12-28T17:41:35.568Z,7.50
2022-12-28T17:44:02.803Z,7.27
2022-12-28T17:46:30.662Z,7.13
2022-12-28T17:48:59.176Z,7.50
2022-12-28T17:51:28.586Z,6.87
2022-12-28T17:53:56.781Z,7.63
2022-12-28T17:56:24.204Z,7.43
2022-12-28T17:58:55.890Z,8.10
2022-12-28T18:01:23.279Z,7.03
2022-12-28T18:03:50.371Z,7.97
2022-12-28T18:06:17.631Z,8.23
2022-12-28T18:08:44.877Z,8.97
2022-12-28T18:11:11.974Z,8.60
2022-12-28T18:13:40.457Z,9.43
2022-12-28T18:16:09.488Z,10.50
2022-12-28T18:18:36.580Z,10.83
2022-12-28T18:21:06.361Z,11.53
2022-12-28T18:23:34.517Z,11.40
2022-12-28T18:26:18.524Z,12.23
2022-12-28T18:28:46.375Z,12.30
2022-12-28T18:31:13.564Z,12.30
2022-12-28T18:33:40.666Z,12.07
2022-12-28T18:36:13.804Z,13.20
2022-12-28T18:38:43.431Z,12.80
2022-12-28T18:41:12.534Z,12.87
2022-12-28T18:43:40.379Z,13.43
2022-12-28T18:46:09.091Z,14.03
2022-12-28T18:48:38.725Z,13.20
2022-12-28T18:51:09.459Z,13.93
2022-12-28T18:53:37.188Z,14.87
2022-12-28T18:56:07.145Z,14.33
2022-12-28T18:58:36.536Z,13.27
2022-12-28T19:01:33.040Z,12.33
2022-12-28T19:04:01.445Z,11.60
2022-12-28T19:06:30.396Z,11.83
2022-12-28T19:09:01.282Z,11.90
2022-12-28T19:11:28.785Z,11.53
2022-12-28T19:13:56.161Z,12.57
2022-12-28T19:16:30.740Z,12.93
2022-12-28T19:18:58.811Z,12.43
2022-12-28T19:21:33.164Z,12.93
2022-12-28T19:24:04.109Z,12.43
2022-12-28T19:26:32.832Z,12.40
2022-12-28T19:29:00.056Z,11.97
2022-12-28T19:31:27.835Z,11.83
2022-12-28T19:33:55.253Z,11.50
2022-12-28T19:36:22.513Z,11.63
2022-12-28T19:38:49.525Z,11.37
2022-12-28T19:41:16.817Z,11.03
2022-12-28T19:43:44.983Z,10.67
2022-12-28T19:46:14.001Z,11.00
2022-12-28T19:48:41.671Z,10.93
2022-12-28T19:51:09.411Z,10.67
2022-12-28T19:53:37.569Z,10.77
2022-12-28T19:56:08.078Z,10.50
2022-12-28T19:58:37.119Z,9.87
2022-12-28T20:01:16.833Z,10.13
2022-12-28T20:03:45.000Z,9.93
2022-12-28T20:06:16.710Z,9.67
2022-12-28T20:08:48.011Z,9.30
2022-12-28T20:11:15.675Z,9.00
2022-12-28T20:13:50.384Z,9.10
2022-12-28T20:16:17.637Z,9.43
2022-12-28T20:18:53.071Z,9.30
2022-12-28T20:21:22.299Z,9.50
2022-12-28T20:23:50.706Z,9.27
2022-12-28T20:26:19.592Z,9.67
2022-12-28T20:28:49.117Z,9.80
2022-12-28T20:31:16.659Z,10.23
2022-12-28T20:33:44.388Z,9.57
2022-12-28T20:36:14.355Z,10.03
2022-12-28T20:38:41.531Z,9.40
2022-12-28T20:41:31.683Z,9.13
2022-12-28T20:44:00.315Z,9.67
2022-12-28T20:46:28.056Z,9.77
2022-12-28T20:48:55.664Z,9.83
2022-12-28T20:51:23.026Z,8.97
2022-12-28T20:53:50.130Z,9.33
2022-12-28T20:56:17.375Z,8.93
2022-12-28T20:58:44.685Z,9.00
2022-12-28T21:01:14.508Z,8.63
2022-12-28T21:03:42.305Z,8.90
2022-12-28T21:06:09.658Z,8.60
2022-12-28T21:08:36.754Z,8.47
2022-12-28T21:11:04.388Z,8.00
2022-12-28T21:13:32.076Z,7.77
2022-12-28T21:15:59.472Z,9.20
2022-12-28T21:18:26.664Z,8.83
2022-12-28T21:21:01.343Z,9.07
2022-12-28T21:23:29.760Z,8.80
2022-12-28T21:26:07.796Z,9.10
2022-12-28T21:28:35.436Z,9.67
2022-12-28T21:31:04.973Z,9.17
2022-12-28T21:33:33.273Z,9.73
2022-12-28T21:36:02.163Z,9.70
2022-12-28T21:38:30.711Z,10.00
2022-12-28T21:41:02.993Z,8.50
2022-12-28T21:43:31.795Z,8.70
2022-12-28T21:46:04.620Z,8.30
2022-12-28T21:48:33.478Z,8.30
2022-12-28T21:51:31.533Z,7.37
2022-12-28T21:54:00.194Z,7.87
2022-12-28T21:56:28.320Z,8.40
2022-12-28T21:58:56.231Z,7.73
2022-12-28T22:01:41.808Z,7.70
2022-12-28T22:04:34.443Z,7.13
2022-12-28T22:07:01.895Z,7.10
2022-12-28T22:09:48.207Z,7.47
2022-12-28T22:12:34.567Z,7.40
2022-12-28T22:15:23.753Z,7.33
2022-12-28T22:17:55.010Z,7.40
2022-12-28T22:20:23.128Z,8.40
2022-12-28T22:22:50.279Z,7.00
2022-12-28T22:25:17.614Z,7.80
2022-12-28T22:27:44.630Z,7.37
2022-12-28T22:30:12.608Z,7.80
2022-12-28T22:32:40.035Z,7.93
2022-12-28T22:35:08.183Z,8.17
2022-12-28T22:37:36.016Z,7.90
2022-12-28T22:40:03.770Z,8.30
2022-12-28T22:42:31.137Z,9.17
2022-12-28T22:44:58.296Z,7.53
2022-12-28T22:47:28.143Z,7.30
2022-12-28T22:49:55.383Z,7.23
2022-12-28T22:52:22.682Z,6.93
2022-12-28T22:54:51.217Z,7.00
2022-12-28T22:57:18.341Z,6.73
2022-12-28T22:59:45.643Z,6.30
2022-12-28T23:02:12.948Z,6.63
2022-12-28T23:04:40.248Z,6.40
2022-12-28T23:07:07.479Z,5.90
2022-12-28T23:09:35.324Z,6.30
2022-12-28T23:12:05.557Z,5.87
2022-12-28T23:15:02.084Z,6.27
2022-12-28T23:17:29.388Z,6.30
2022-12-28T23:20:14.933Z,6.23
2022-12-28T23:23:11.276Z,5.73
2022-12-28T23:26:12.727Z,5.70
2022-12-28T23:28:39.916Z,6.00
2022-12-28T23:31:07.078Z,6.50
2022-12-28T23:33:34.164Z,5.77
2022-12-28T23:36:03.725Z,6.50
2022-12-28T23:38:32.775Z,6.90
2022-12-28T23:41:18.202Z,6.63
2022-12-28T23:43:45.556Z,7.63
2022-12-28T23:46:12.786Z,8.03
2022-12-28T23:48:39.885Z,8.13
2022-12-28T23:51:08.412Z,8.30
2022-12-28T23:53:36.181Z,8.00
2022-12-28T23:56:03.213Z,8.57
2022-12-28T23:58:30.407Z,9.00
